Time;durP1;ratioP1;P1;durP2;ratioP2;P2;SDS_P1;SDS_P2;PMS_P1;PMS_P2;Temp;Humidity;BMP_temperature;BMP_pressure;BME280_temperature;BME280_humidity;BME280_pressure;Samples;Min_cycle;Max_cycle;Signal;HPM_P1;HPM_P2
2022/06/11 00:00:55;;;;;;;6.45;3.70;;;18.30;99.90;;;;;;5046749;28;20132;-79
2022/06/11 00:03:21;;;;;;;6.88;3.97;;;18.30;99.90;;;;;;5030445;28;20120;-79
2022/06/11 00:05:47;;;;;;;6.50;4.10;;;18.30;99.90;;;;;;5044754;28;20037;-79
2022/06/11 00:08:12;;;;;;;5.10;3.75;;;18.30;99.90;;;;;;5043680;28;20121;-79
2022/06/11 00:10:39;;;;;;;7.07;4.28;;;18.20;99.90;;;;;;5045031;28;20044;-79
2022/06/11 00:13:05;;;;;;;6.32;4.43;;;18.20;99.90;;;;;;5030425;28;20037;-79
2022/06/11 00:15:32;;;;;;;7.75;4.63;;;18.20;99.90;;;;;;5030142;28;20076;-79
2022/06/11 00:17:57;;;;;;;7.00;4.43;;;18.10;99.90;;;;;;5047305;28;20364;-79
2022/06/11 00:20:27;;;;;;;7.80;4.47;;;18.00;99.90;;;;;;5043760;28;20038;-80
2022/06/11 00:22:53;;;;;;;9.20;4.90;;;17.90;99.90;;;;;;5028489;28;20041;-79
2022/06/11 00:25:20;;;;;;;9.32;4.57;;;17.80;99.90;;;;;;5048144;28;20036;-79
2022/06/11 00:27:47;;;;;;;7.82;4.90;;;17.70;99.90;;;;;;5049811;28;20048;-79
2022/06/11 00:30:13;;;;;;;8.93;5.03;;;17.70;99.90;;;;;;5046560;28;20044;-79
2022/06/11 00:32:39;;;;;;;7.88;4.80;;;17.60;99.90;;;;;;5045676;28;20082;-80
2022/06/11 00:35:06;;;;;;;7.55;4.97;;;17.40;99.90;;;;;;5046565;28;20460;-79
2022/06/11 00:37:33;;;;;;;7.40;4.20;;;17.40;99.90;;;;;;5044295;28;20032;-79
2022/06/11 00:39:59;;;;;;;7.35;3.97;;;17.40;99.90;;;;;;5045275;28;20044;-79
2022/06/11 00:42:29;;;;;;;9.40;4.05;;;17.30;99.90;;;;;;5045803;28;20431;-80
2022/06/11 00:45:15;;;;;;;6.65;3.25;;;17.30;99.90;;;;;;5043142;28;20467;-80
2022/06/11 00:47:42;;;;;;;9.98;3.47;;;17.20;99.90;;;;;;5063164;28;20465;-79
2022/06/11 00:50:40;;;;;;;9.15;3.58;;;17.10;99.90;;;;;;5042145;28;21741;-79
2022/06/11 00:53:16;;;;;;;7.53;2.67;;;17.00;99.90;;;;;;5045528;28;20025;-80
2022/06/11 00:55:42;;;;;;;7.22;2.70;;;17.00;99.90;;;;;;5043218;28;20049;-80
2022/06/11 00:58:37;;;;;;;8.63;2.85;;;16.90;99.90;;;;;;5060415;28;20512;-80
2022/06/11 01:01:03;;;;;;;7.72;2.65;;;16.80;99.90;;;;;;5043510;28;20055;-80
2022/06/11 01:03:34;;;;;;;8.07;2.90;;;16.80;99.90;;;;;;5044366;28;20372;-80
2022/06/11 01:06:22;;;;;;;7.40;2.80;;;16.70;99.90;;;;;;5044515;28;20120;-80
2022/06/11 01:08:51;;;;;;;10.50;2.65;;;16.70;99.90;;;;;;5046299;28;20037;-80
2022/06/11 01:11:47;;;;;;;10.23;2.72;;;16.70;99.90;;;;;;5044847;28;20098;-80
2022/06/11 01:14:27;;;;;;;6.00;2.75;;;16.60;99.90;;;;;;5041968;28;20087;-80
2022/06/11 01:17:10;;;;;;;6.18;2.20;;;16.60;99.90;;;;;;5043180;28;20109;-80
2022/06/11 01:20:10;;;;;;;10.77;2.63;;;16.60;99.90;;;;;;5045765;28;20039;-80
2022/06/11 01:22:58;;;;;;;9.27;2.00;;;16.50;99.90;;;;;;5044315;28;20041;-81
2022/06/11 01:25:33;;;;;;;5.78;2.15;;;16.50;99.90;;;;;;5045331;28;20036;-80
2022/06/11 01:28:26;;;;;;;7.93;1.98;;;16.50;99.90;;;;;;5065234;28;20097;-80
2022/06/11 01:31:01;;;;;;;6.53;2.17;;;16.40;99.90;;;;;;5045858;28;20044;-80
2022/06/11 01:33:43;;;;;;;8.07;2.10;;;16.40;99.90;;;;;;5044934;28;20044;-79
2022/06/11 01:36:23;;;;;;;7.40;1.98;;;16.40;99.90;;;;;;5047605;28;20064;-80
2022/06/11 01:38:58;;;;;;;8.13;2.55;;;16.40;99.90;;;;;;5044525;28;20045;-80
2022/06/11 01:41:53;;;;;;;10.05;2.60;;;16.40;99.90;;;;;;5059536;28;20044;-80
2022/06/11 01:44:29;;;;;;;6.45;1.73;;;16.30;99.90;;;;;;5043966;28;20383;-81
2022/06/11 01:46:56;;;;;;;5.50;2.00;;;16.30;99.90;;;;;;5026517;28;20037;-80
2022/06/11 01:49:22;;;;;;;5.38;2.10;;;16.20;99.90;;;;;;5044586;28;20045;-80
2022/06/11 01:52:09;;;;;;;7.07;1.98;;;16.20;99.90;;;;;;5061959;28;20040;-81
2022/06/11 01:54:57;;;;;;;9.95;2.40;;;16.00;99.90;;;;;;5026087;28;20037;-81
2022/06/11 01:57:39;;;;;;;5.97;1.83;;;15.90;99.90;;;;;;5044287;28;20048;-80
2022/06/11 02:00:07;;;;;;;8.60;2.20;;;15.80;99.90;;;;;;5046080;28;20052;-79
2022/06/11 02:02:59;;;;;;;8.57;2.17;;;15.80;99.90;;;;;;5044903;28;20044;-80
2022/06/11 02:05:51;;;;;;;6.50;1.92;;;15.70;99.90;;;;;;5041298;28;20120;-80
2022/06/11 02:08:39;;;;;;;7.80;2.50;;;15.60;99.90;;;;;;5043288;28;21658;-80
2022/06/11 02:11:21;;;;;;;7.93;1.88;;;15.60;99.90;;;;;;5042728;28;20032;-80
2022/06/11 02:13:56;;;;;;;8.18;2.00;;;15.60;99.90;;;;;;5042452;28;20041;-80
2022/06/11 02:16:35;;;;;;;6.88;2.28;;;15.60;99.90;;;;;;5044013;28;20033;-80
2022/06/11 02:19:11;;;;;;;5.95;2.35;;;15.60;99.90;;;;;;5044541;28;20045;-80
2022/06/11 02:21:44;;;;;;;9.02;2.13;;;15.60;99.90;;;;;;5040266;28;20037;-81
2022/06/11 02:24:22;;;;;;;6.65;1.70;;;15.60;99.90;;;;;;5044858;28;20040;-80
2022/06/11 02:26:53;;;;;;;7.50;1.95;;;15.60;99.90;;;;;;5049352;28;20048;-80
2022/06/11 02:29:22;;;;;;;5.90;1.65;;;15.50;99.90;;;;;;5046419;28;20087;-80
2022/06/11 02:31:55;;;;;;;11.02;2.00;;;15.50;99.90;;;;;;5044107;28;20033;-80
2022/06/11 02:34:24;;;;;;;6.75;2.10;;;15.40;99.90;;;;;;5043911;28;20041;-80
2022/06/11 02:37:00;;;;;;;7.45;2.00;;;15.50;99.90;;;;;;5043741;28;20037;-81
2022/06/11 02:39:27;;;;;;;10.90;2.50;;;15.30;99.90;;;;;;5044901;28;20218;-81
2022/06/11 02:41:53;;;;;;;8.63;1.85;;;15.40;99.90;;;;;;5042964;28;20435;-81
2022/06/11 02:44:19;;;;;;;8.32;2.20;;;15.20;99.90;;;;;;5043547;28;20052;-80
2022/06/11 02:46:45;;;;;;;11.07;2.20;;;15.40;99.90;;;;;;5042167;28;20383;-81
2022/06/11 02:49:24;;;;;;;8.65;2.10;;;15.30;99.90;;;;;;5026266;28;20086;-81
2022/06/11 02:51:52;;;;;;;8.38;2.42;;;15.30;99.90;;;;;;5044188;28;20403;-81
2022/06/11 02:54:19;;;;;;;7.65;2.20;;;15.20;99.90;;;;;;5044068;28;20115;-80
2022/06/11 02:56:47;;;;;;;7.13;1.98;;;15.20;99.90;;;;;;5027203;28;20059;-81
2022/06/11 02:59:13;;;;;;;8.88;2.20;;;15.20;99.90;;;;;;5043428;28;20513;-80
2022/06/11 03:01:40;;;;;;;9.02;2.22;;;15.00;99.90;;;;;;5044538;28;20049;-80
2022/06/11 03:04:06;;;;;;;5.82;1.90;;;15.10;99.90;;;;;;5028312;28;20410;-81
2022/06/11 03:06:31;;;;;;;5.03;2.10;;;15.00;99.90;;;;;;5048521;28;20035;-81
2022/06/11 03:08:58;;;;;;;8.23;2.53;;;15.10;99.90;;;;;;5047398;28;20036;-80
2022/06/11 03:11:24;;;;;;;5.53;2.38;;;15.00;99.90;;;;;;5029536;28;20297;-81
2022/06/11 03:13:50;;;;;;;11.70;2.78;;;15.00;99.90;;;;;;5046201;28;20037;-81
2022/06/11 03:16:16;;;;;;;7.38;2.60;;;15.00;99.90;;;;;;5063196;28;20035;-81
2022/06/11 03:18:42;;;;;;;11.45;2.85;;;15.00;99.90;;;;;;5046245;28;20076;-81
2022/06/11 03:21:08;;;;;;;11.82;2.72;;;15.10;99.90;;;;;;5046596;28;20033;-81
2022/06/11 03:23:34;;;;;;;10.13;2.70;;;15.00;99.90;;;;;;5046682;28;20061;-81
2022/06/11 03:26:01;;;;;;;7.07;2.70;;;15.00;99.90;;;;;;5051602;28;20041;-81
2022/06/11 03:28:28;;;;;;;8.20;3.10;;;15.00;99.90;;;;;;5049681;28;20116;-81
2022/06/11 03:30:56;;;;;;;6.53;2.38;;;15.00;99.90;;;;;;5030382;28;20059;-81
2022/06/11 03:33:22;;;;;;;7.63;2.92;;;14.90;99.90;;;;;;5045933;28;20125;-81
2022/06/11 03:35:49;;;;;;;7.65;2.75;;;14.90;99.90;;;;;;5048092;28;20041;-81
2022/06/11 03:38:16;;;;;;;9.30;2.90;;;14.90;99.90;;;;;;5048169;28;20116;-81
2022/06/11 03:40:42;;;;;;;10.25;2.95;;;14.90;99.90;;;;;;5046710;28;20114;-81
2022/06/11 03:43:08;;;;;;;9.27;2.80;;;14.90;99.90;;;;;;5030433;28;20036;-81
2022/06/11 03:45:34;;;;;;;10.88;3.20;;;14.90;99.90;;;;;;5047144;28;20111;-81
2022/06/11 03:47:59;;;;;;;10.00;3.05;;;14.90;99.90;;;;;;5047918;28;20045;-81
2022/06/11 03:50:30;;;;;;;11.07;3.78;;;14.90;99.90;;;;;;5046466;28;20402;-81
2022/06/11 03:52:56;;;;;;;9.57;3.22;;;14.90;99.90;;;;;;5047222;28;20403;-81
2022/06/11 03:55:24;;;;;;;11.77;3.40;;;14.90;99.90;;;;;;5044893;28;20053;-81
2022/06/11 03:57:49;;;;;;;8.90;3.08;;;14.90;99.90;;;;;;5047516;28;20119;-81
2022/06/11 04:01:14;;;;;;;11.00;2.83;;;15.00;99.90;;;;;;5047384;28;20103;-82
2022/06/11 04:03:04;;;;;;;13.00;3.15;;;15.00;99.90;;;;;;5045907;28;20498;-81
2022/06/11 04:05:30;;;;;;;11.43;3.42;;;15.00;99.90;;;;;;5045287;28;20044;-82
2022/06/11 04:07:55;;;;;;;11.30;3.08;;;15.20;99.90;;;;;;5047272;28;20134;-81
2022/06/11 04:10:21;;;;;;;8.63;3.00;;;15.10;99.90;;;;;;5045852;28;20036;-81
2022/06/11 04:12:47;;;;;;;10.93;2.90;;;15.10;99.90;;;;;;5046070;28;20510;-81
2022/06/11 04:15:13;;;;;;;11.88;3.00;;;15.10;99.90;;;;;;5027678;28;20478;-81
2022/06/11 04:17:39;;;;;;;11.75;3.15;;;15.10;99.90;;;;;;5064248;28;20078;-81
2022/06/11 04:20:05;;;;;;;10.63;3.17;;;15.10;99.90;;;;;;5062019;28;20552;-81
2022/06/11 04:22:31;;;;;;;12.65;3.08;;;15.20;99.90;;;;;;5045983;28;20045;-80
2022/06/11 04:24:56;;;;;;;12.90;3.42;;;15.20;99.90;;;;;;5048164;28;20037;-81
2022/06/11 04:27:23;;;;;;;10.82;3.10;;;15.20;99.90;;;;;;5052062;28;20068;-81
2022/06/11 04:29:54;;;;;;;11.63;3.00;;;15.30;99.90;;;;;;5047048;28;20033;-81
2022/06/11 04:32:22;;;;;;;11.57;3.08;;;15.30;99.90;;;;;;5044825;28;20100;-80
2022/06/11 04:34:49;;;;;;;11.65;3.35;;;15.30;99.90;;;;;;5046197;28;20115;-81
2022/06/11 04:37:16;;;;;;;12.38;3.22;;;15.40;99.90;;;;;;5047081;28;20045;-81
2022/06/11 04:39:45;;;;;;;10.88;2.97;;;15.40;99.90;;;;;;5046810;28;20072;-80
2022/06/11 04:42:11;;;;;;;16.35;3.65;;;15.50;99.90;;;;;;5046663;28;20154;-80
2022/06/11 04:44:41;;;;;;;12.73;3.38;;;15.50;99.90;;;;;;5044898;28;20380;-80
2022/06/11 04:47:09;;;;;;;12.43;3.05;;;15.60;99.90;;;;;;5042587;28;20497;-80
2022/06/11 04:49:35;;;;;;;12.45;3.25;;;15.60;99.90;;;;;;5028677;28;20045;-80
2022/06/11 04:52:01;;;;;;;11.45;3.17;;;15.60;99.90;;;;;;5044811;28;20029;-80
2022/06/11 04:54:27;;;;;;;12.82;3.40;;;15.70;99.90;;;;;;5028456;28;20090;-80
2022/06/11 04:56:53;;;;;;;10.30;2.67;;;15.80;99.90;;;;;;5044957;28;20060;-79
2022/06/11 04:59:19;;;;;;;9.55;2.80;;;15.90;99.90;;;;;;5039800;28;20069;-80
2022/06/11 05:01:45;;;;;;;9.52;2.72;;;15.90;99.90;;;;;;5047640;28;20041;-80
2022/06/11 05:04:12;;;;;;;13.52;3.15;;;15.90;99.90;;;;;;5044001;28;20537;-80
2022/06/11 05:06:39;;;;;;;9.13;2.85;;;16.00;99.90;;;;;;5029447;28;20032;-79
2022/06/11 05:09:14;;;;;;;12.50;3.60;;;16.10;99.90;;;;;;5030330;28;20056;-79
2022/06/11 05:11:40;;;;;;;13.88;3.28;;;16.10;99.90;;;;;;5048462;28;20033;-79
2022/06/11 05:14:06;;;;;;;11.10;3.83;;;16.20;99.90;;;;;;5045767;28;20624;-80
2022/06/11 05:16:32;;;;;;;15.32;3.38;;;16.30;99.90;;;;;;5044885;28;20051;-79
2022/06/11 05:18:58;;;;;;;11.20;2.97;;;16.40;99.90;;;;;;5045881;28;20143;-78
2022/06/11 05:21:24;;;;;;;12.15;3.40;;;16.50;99.90;;;;;;5045648;28;20562;-79
2022/06/11 05:23:49;;;;;;;13.63;3.85;;;16.40;99.90;;;;;;5046838;28;20557;-80
2022/06/11 05:26:20;;;;;;;15.98;3.63;;;16.50;99.90;;;;;;5059438;28;20041;-79
2022/06/11 05:28:45;;;;;;;17.73;4.22;;;16.60;99.90;;;;;;5044436;28;20048;-80
2022/06/11 05:31:11;;;;;;;14.82;3.60;;;16.60;99.90;;;;;;5043780;28;20037;-79
2022/06/11 05:33:37;;;;;;;15.65;3.63;;;16.60;99.90;;;;;;5042322;28;20368;-79
2022/06/11 05:36:04;;;;;;;14.27;3.50;;;16.60;99.90;;;;;;5043890;28;20056;-80
2022/06/11 05:38:31;;;;;;;18.30;4.28;;;16.60;99.90;;;;;;5045896;28;20041;-81
2022/06/11 05:40:57;;;;;;;18.60;4.05;;;16.70;99.90;;;;;;5027186;28;20036;-80
2022/06/11 05:43:24;;;;;;;19.75;4.38;;;16.70;99.90;;;;;;5045269;28;20582;-79
2022/06/11 05:45:54;;;;;;;22.65;4.45;;;16.80;99.90;;;;;;5041093;28;20052;-81
2022/06/11 05:48:24;;;;;;;18.17;3.88;;;16.70;99.90;;;;;;5044985;28;20028;-79
2022/06/11 05:50:54;;;;;;;19.65;4.43;;;16.90;99.90;;;;;;5044802;28;20048;-80
2022/06/11 05:53:22;;;;;;;18.65;3.95;;;16.80;99.90;;;;;;5044601;28;20075;-79
2022/06/11 05:55:49;;;;;;;16.60;3.92;;;17.00;99.90;;;;;;5049779;28;20069;-79
2022/06/11 05:58:20;;;;;;;17.70;4.45;;;17.10;99.90;;;;;;5049520;28;20414;-80
2022/06/11 06:00:46;;;;;;;18.05;4.60;;;17.20;99.90;;;;;;5041901;28;20041;-81
2022/06/11 06:03:12;;;;;;;22.02;5.53;;;17.20;99.90;;;;;;5047451;28;20045;-81
2022/06/11 06:05:39;;;;;;;17.08;4.50;;;17.30;99.90;;;;;;5049624;28;20051;-80
2022/06/11 06:08:06;;;;;;;21.80;4.68;;;17.30;99.90;;;;;;5050601;28;20048;-81
2022/06/11 06:10:32;;;;;;;16.98;4.47;;;17.40;99.90;;;;;;5050487;28;20060;-80
2022/06/11 06:12:57;;;;;;;20.55;4.50;;;17.40;99.90;;;;;;5033872;28;20037;-80
2022/06/11 06:15:25;;;;;;;23.02;4.65;;;17.50;99.90;;;;;;5032889;28;20037;-80
2022/06/11 06:17:51;;;;;;;16.33;4.30;;;17.70;99.90;;;;;;5050846;28;20120;-79
2022/06/11 06:20:20;;;;;;;19.83;4.85;;;17.70;99.90;;;;;;5044898;28;20490;-80
2022/06/11 06:22:46;;;;;;;18.02;4.40;;;17.90;99.90;;;;;;5048996;28;20041;-80
2022/06/11 06:25:16;;;;;;;20.38;4.60;;;18.00;99.90;;;;;;5047661;28;20041;-80
2022/06/11 06:27:42;;;;;;;20.52;5.05;;;18.10;99.90;;;;;;5047238;28;20227;-80
2022/06/11 06:30:08;;;;;;;20.60;4.35;;;18.20;99.90;;;;;;5050135;28;20115;-81
2022/06/11 06:32:34;;;;;;;18.08;5.35;;;18.20;99.90;;;;;;5033875;28;20091;-81
2022/06/11 06:35:00;;;;;;;23.70;5.45;;;18.30;99.90;;;;;;5049652;28;20045;-81
2022/06/11 06:37:25;;;;;;;20.48;5.10;;;18.40;99.90;;;;;;5049077;28;20064;-80
2022/06/11 06:39:51;;;;;;;20.08;4.50;;;18.50;99.90;;;;;;5052821;28;20041;-80
2022/06/11 06:42:17;;;;;;;21.13;5.10;;;18.50;99.90;;;;;;5054517;28;20057;-80
2022/06/11 06:44:42;;;;;;;24.27;4.95;;;18.50;99.90;;;;;;5036253;28;20124;-81
2022/06/11 06:47:08;;;;;;;17.33;4.97;;;18.60;99.90;;;;;;5061701;28;20040;-79
2022/06/11 06:49:34;;;;;;;21.58;5.38;;;18.60;99.90;;;;;;5052933;28;20037;-80
2022/06/11 06:51:59;;;;;;;24.02;5.53;;;18.60;99.90;;;;;;5035151;28;20065;-80
2022/06/11 06:54:25;;;;;;;22.98;5.65;;;18.70;99.90;;;;;;5052008;28;20052;-79
2022/06/11 06:56:50;;;;;;;23.17;5.35;;;18.70;99.90;;;;;;5052848;28;20045;-80
2022/06/11 06:59:16;;;;;;;25.58;4.70;;;18.80;99.90;;;;;;5047354;28;20048;-80
2022/06/11 07:01:44;;;;;;;25.15;5.55;;;19.00;99.90;;;;;;5035773;28;20036;-81
2022/06/11 07:04:11;;;;;;;20.70;4.78;;;19.00;99.90;;;;;;5031992;28;20041;-78
2022/06/11 07:06:37;;;;;;;17.63;4.63;;;18.90;99.90;;;;;;5051632;28;20058;-77
2022/06/11 07:09:03;;;;;;;18.83;5.00;;;18.80;99.90;;;;;;5052303;28;20037;-79
2022/06/11 07:11:29;;;;;;;24.55;6.07;;;18.70;99.90;;;;;;5053880;28;20029;-80
2022/06/11 07:13:55;;;;;;;24.33;4.78;;;18.70;99.90;;;;;;5052676;28;20064;-79
2022/06/11 07:16:29;;;;;;;22.73;5.20;;;18.60;99.90;;;;;;5048998;28;20025;-79
2022/06/11 07:18:57;;;;;;;;;;;18.70;99.90;;;;;;5049767;28;20045;-80
2022/06/11 07:21:29;;;;;;;26.92;5.65;;;18.90;99.90;;;;;;5047811;28;19917;-79
2022/06/11 07:23:59;;;;;;;23.42;4.88;;;19.10;99.90;;;;;;5030834;28;20247;-80
2022/06/11 07:26:36;;;;;;;19.40;5.05;;;19.20;99.90;;;;;;5045798;28;20040;-79
2022/06/11 07:29:11;;;;;;;19.70;5.15;;;19.30;99.90;;;;;;5048404;28;20122;-79
2022/06/11 07:31:38;;;;;;;23.95;4.70;;;19.60;99.90;;;;;;5033498;28;20395;-80
2022/06/11 07:34:05;;;;;;;20.92;5.00;;;19.60;99.90;;;;;;5047920;28;20125;-77
2022/06/11 07:36:31;;;;;;;20.65;4.63;;;19.60;99.90;;;;;;5048737;28;20037;-79
2022/06/11 07:38:56;;;;;;;21.27;4.72;;;19.80;99.90;;;;;;5048384;28;20033;-78
2022/06/11 07:41:22;;;;;;;22.52;4.80;;;19.90;99.90;;;;;;5035076;28;20044;-79
2022/06/11 07:43:48;;;;;;;19.48;4.88;;;20.00;99.90;;;;;;5043800;28;20082;-78
2022/06/11 07:46:13;;;;;;;24.65;5.70;;;20.00;99.90;;;;;;5045384;28;20063;-77
2022/06/11 07:48:39;;;;;;;22.70;4.90;;;20.00;99.90;;;;;;5045520;28;20045;-80
2022/06/11 07:51:05;;;;;;;19.13;4.50;;;20.10;99.90;;;;;;5044862;28;20033;-79
2022/06/11 07:53:31;;;;;;;17.83;4.68;;;19.90;99.90;;;;;;5052629;28;20067;-79
2022/06/11 07:55:57;;;;;;;18.08;4.72;;;19.70;99.90;;;;;;5044769;28;20029;-79
2022/06/11 07:58:30;;;;;;;16.90;4.60;;;19.60;99.90;;;;;;5051501;28;20515;-79
2022/06/11 08:00:57;;;;;;;25.00;4.82;;;19.60;99.90;;;;;;5050494;28;20079;-77
2022/06/11 08:03:24;;;;;;;21.63;4.40;;;19.80;99.90;;;;;;5034524;28;20064;-78
2022/06/11 08:05:49;;;;;;;21.38;5.40;;;19.90;99.90;;;;;;5053831;28;20037;-79
2022/06/11 08:08:17;;;;;;;19.48;4.38;;;20.00;99.90;;;;;;5053159;28;20155;-78
2022/06/11 08:10:43;;;;;;;21.55;5.32;;;20.00;99.90;;;;;;5053130;28;20047;-78
2022/06/11 08:13:09;;;;;;;18.92;4.28;;;20.20;99.90;;;;;;5052798;28;20028;-78
2022/06/11 08:15:36;;;;;;;18.25;4.28;;;20.10;99.90;;;;;;5052918;28;20040;-79
2022/06/11 08:18:02;;;;;;;18.92;4.00;;;20.10;99.90;;;;;;5052923;28;20041;-78
2022/06/11 08:20:30;;;;;;;16.33;4.28;;;20.20;99.90;;;;;;5052502;28;20037;-78
2022/06/11 08:22:56;;;;;;;17.88;4.30;;;20.40;99.90;;;;;;5052563;28;20049;-78
2022/06/11 08:25:23;;;;;;;24.08;4.40;;;20.70;99.90;;;;;;5051835;28;20045;-77
2022/06/11 08:27:49;;;;;;;15.73;3.95;;;20.80;99.90;;;;;;5053035;28;20556;-78
2022/06/11 08:30:18;;;;;;;16.77;3.92;;;20.70;99.90;;;;;;5052369;28;20036;-77
2022/06/11 08:32:44;;;;;;;15.68;3.90;;;20.50;99.90;;;;;;5052291;28;20575;-78
2022/06/11 08:35:12;;;;;;;23.25;4.03;;;20.60;99.90;;;;;;5051109;28;20044;-79
2022/06/11 08:37:37;;;;;;;14.88;3.65;;;20.80;99.90;;;;;;5034997;28;20131;-77
2022/06/11 08:40:14;;;;;;;15.43;3.63;;;20.70;99.90;;;;;;5051085;28;20248;-76
2022/06/11 08:42:43;;;;;;;18.20;4.53;;;20.80;99.90;;;;;;5051233;28;20418;-77
2022/06/11 08:45:20;;;;;;;20.00;4.25;;;20.70;99.90;;;;;;5050935;28;20051;-78
2022/06/11 08:47:51;;;;;;;22.83;4.40;;;20.70;99.90;;;;;;5051515;28;20037;-77
2022/06/11 08:50:27;;;;;;;20.98;4.35;;;20.80;99.90;;;;;;5051196;28;20078;-77
2022/06/11 08:52:53;;;;;;;18.73;3.72;;;21.00;99.90;;;;;;5051219;28;20171;-77
2022/06/11 08:55:21;;;;;;;15.55;3.88;;;21.30;99.90;;;;;;5050179;28;20049;-77
2022/06/11 08:57:56;;;;;;;19.67;4.22;;;21.40;99.90;;;;;;5050885;28;20048;-77
2022/06/11 09:00:28;;;;;;;24.23;4.65;;;21.50;99.90;;;;;;5050202;28;20143;-77
2022/06/11 09:03:07;;;;;;;17.80;5.03;;;21.50;99.90;;;;;;5050236;28;20052;-76
2022/06/11 09:05:40;;;;;;;15.45;3.47;;;21.50;99.90;;;;;;5050135;28;20402;-77
2022/06/11 09:08:22;;;;;;;15.73;3.90;;;21.50;99.90;;;;;;5051008;28;20041;-77
2022/06/11 09:11:01;;;;;;;15.93;3.47;;;21.40;99.90;;;;;;5050618;28;20041;-78
2022/06/11 09:13:58;;;;;;;12.82;3.53;;;21.30;99.90;;;;;;5050867;28;20029;-77
2022/06/11 09:16:48;;;;;;;17.48;3.70;;;21.10;99.90;;;;;;5051103;28;20107;-77
2022/06/11 09:19:28;;;;;;;16.13;3.70;;;21.00;99.90;;;;;;5051133;28;20041;-77
2022/06/11 09:22:08;;;;;;;14.20;3.25;;;20.90;99.90;;;;;;5050846;28;20524;-77
2022/06/11 09:25:02;;;;;;;15.60;3.88;;;21.00;99.90;;;;;;5049869;28;20084;-77
2022/06/11 09:27:50;;;;;;;18.05;2.85;;;21.00;99.90;;;;;;5050510;28;20585;-77
2022/06/11 09:30:25;;;;;;;12.30;3.13;;;21.10;99.90;;;;;;5050429;28;20065;-77
2022/06/11 09:32:52;;;;;;;9.30;2.75;;;21.10;99.90;;;;;;5050151;28;20033;-77
2022/06/11 09:35:45;;;;;;;12.25;3.20;;;21.00;99.90;;;;;;5048786;28;20064;-76
2022/06/11 09:38:10;;;;;;;12.48;3.00;;;21.00;99.90;;;;;;5042041;28;20466;-77
2022/06/11 09:40:57;;;;;;;14.52;3.05;;;20.90;99.90;;;;;;5033542;28;20087;-76
2022/06/11 09:43:49;;;;;;;15.80;3.30;;;21.00;99.90;;;;;;5050442;28;20431;-76
2022/06/11 09:46:33;;;;;;;13.68;3.00;;;21.10;99.90;;;;;;5033273;28;20052;-76
2022/06/11 09:49:41;;;;;;;15.30;3.17;;;21.30;99.90;;;;;;5050240;28;20049;-76
2022/06/11 09:52:21;;;;;;;14.80;3.10;;;21.40;99.90;;;;;;5050055;28;20509;-76
2022/06/11 09:55:00;;;;;;;13.90;2.90;;;21.50;99.90;;;;;;5049128;28;20045;-77
2022/06/11 09:57:42;;;;;;;15.05;2.85;;;21.60;99.90;;;;;;5049522;28;20045;-77
2022/06/11 10:00:26;;;;;;;11.95;2.78;;;21.70;99.90;;;;;;5049965;28;20055;-77
2022/06/11 10:06:08;;;;;;;12.88;2.55;;;21.90;99.90;;;;;;5029312;28;20125;-76
2022/06/11 10:08:45;;;;;;;;;;;22.00;99.90;;;;;;5047159;28;20051;-77
2022/06/11 10:11:22;;;;;;;10.25;2.38;;;22.00;99.90;;;;;;5049247;28;19917;-76
2022/06/11 10:13:54;;;;;;;11.63;2.95;;;22.10;99.90;;;;;;5048999;28;20437;-77
2022/06/11 10:16:32;;;;;;;9.38;2.30;;;22.20;99.90;;;;;;5051981;28;20049;-77
2022/06/11 10:19:26;;;;;;;11.98;2.63;;;22.20;99.90;;;;;;5036561;28;20037;-77
2022/06/11 10:22:04;;;;;;;12.32;3.17;;;22.00;99.90;;;;;;5048938;28;20041;-77
2022/06/11 10:24:34;;;;;;;11.50;2.85;;;21.90;99.90;;;;;;5051487;28;20044;-76
2022/06/11 10:27:06;;;;;;;11.80;3.05;;;21.70;99.90;;;;;;5052479;28;20437;-77
2022/06/11 10:29:50;;;;;;;14.93;3.00;;;21.80;99.90;;;;;;5053177;28;20029;-77
2022/06/11 10:32:48;;;;;;;14.07;2.97;;;22.00;99.90;;;;;;5050012;28;20033;-77
2022/06/11 10:35:21;;;;;;;11.82;2.78;;;21.90;99.90;;;;;;5036293;28;20526;-77
2022/06/11 10:38:07;;;;;;;11.55;2.63;;;21.80;99.90;;;;;;5044623;28;20069;-76
2022/06/11 10:40:38;;;;;;;12.20;2.20;;;22.00;99.90;;;;;;5031390;28;20068;-77
2022/06/11 10:43:12;;;;;;;17.70;2.92;;;22.20;99.90;;;;;;5049590;28;20041;-78
2022/06/11 10:45:38;;;;;;;13.27;2.97;;;22.10;99.90;;;;;;5048737;28;20227;-77
2022/06/11 10:48:14;;;;;;;16.20;3.33;;;22.00;99.90;;;;;;5036549;28;20099;-77
2022/06/11 10:50:40;;;;;;;13.55;3.13;;;22.00;99.90;;;;;;5052784;28;20051;-74
2022/06/11 10:53:30;;;;;;;13.13;2.45;;;22.10;99.90;;;;;;5034836;28;20044;-78
2022/06/11 10:56:06;;;;;;;12.60;2.53;;;21.90;99.90;;;;;;5051314;28;20049;-76
2022/06/11 10:58:50;;;;;;;11.32;2.67;;;21.60;99.90;;;;;;5053257;28;20083;-76
2022/06/11 11:01:34;;;;;;;12.40;2.83;;;21.70;99.90;;;;;;5050346;28;20114;-77
2022/06/11 11:04:26;;;;;;;10.65;2.75;;;22.10;99.90;;;;;;5066721;28;20545;-77
2022/06/11 11:07:18;;;;;;;15.50;2.95;;;22.40;99.90;;;;;;5062392;28;20041;-77
2022/06/11 11:09:44;;;;;;;11.05;3.25;;;22.60;99.90;;;;;;5040264;28;20049;-78
2022/06/11 11:12:24;;;;;;;12.70;2.80;;;22.60;99.90;;;;;;5046550;28;20029;-78
2022/06/11 11:15:18;;;;;;;11.93;3.13;;;22.20;99.90;;;;;;5049020;28;20079;-78
2022/06/11 11:17:51;;;;;;;13.18;3.20;;;21.90;99.90;;;;;;5031823;28;20060;-78
2022/06/11 11:20:32;;;;;;;14.48;3.03;;;21.70;99.90;;;;;;5034142;28;20041;-79
2022/06/11 11:23:10;;;;;;;12.93;2.85;;;21.50;99.90;;;;;;5049190;28;20095;-79
2022/06/11 11:25:40;;;;;;;12.88;2.53;;;21.50;99.90;;;;;;5049788;28;20068;-77
2022/06/11 11:28:14;;;;;;;15.98;3.22;;;21.60;99.90;;;;;;5053762;28;20052;-79
2022/06/11 11:30:40;;;;;;;11.40;2.67;;;21.80;99.90;;;;;;5053998;28;20491;-77
2022/06/11 11:33:27;;;;;;;15.57;3.47;;;22.00;99.90;;;;;;5052618;28;20102;-77
2022/06/11 11:36:17;;;;;;;13.45;2.60;;;22.30;99.90;;;;;;5032322;28;20120;-77
2022/06/11 11:38:42;;;;;;;11.10;2.58;;;22.60;99.90;;;;;;5032002;28;20033;-78
2022/06/11 11:41:23;;;;;;;13.95;3.17;;;22.50;99.90;;;;;;5053190;28;20486;-78
2022/06/11 11:43:51;;;;;;;9.93;2.83;;;22.30;99.90;;;;;;5029131;28;20090;-76
2022/06/11 11:46:22;;;;;;;13.32;2.60;;;22.50;99.90;;;;;;5041166;28;20562;-79
2022/06/11 11:48:52;;;;;;;10.25;2.50;;;22.70;99.90;;;;;;5032633;28;20044;-77
2022/06/11 11:51:27;;;;;;;10.32;2.85;;;23.20;99.90;;;;;;5047030;28;20037;-79
2022/06/11 11:53:59;;;;;;;11.07;2.60;;;23.00;99.90;;;;;;5061667;28;20055;-78
2022/06/11 11:56:30;;;;;;;10.30;2.50;;;23.20;99.90;;;;;;5052384;28;20075;-78
2022/06/11 11:59:14;;;;;;;10.60;2.63;;;23.40;99.90;;;;;;5053578;28;20403;-78
2022/06/11 12:01:40;;;;;;;10.48;2.65;;;23.80;99.90;;;;;;5034570;28;20041;-80
2022/06/11 12:04:26;;;;;;;11.93;2.67;;;23.90;99.60;;;;;;5049058;28;20120;-79
2022/06/11 12:06:56;;;;;;;10.60;2.20;;;24.00;99.30;;;;;;5039367;28;22027;-76
2022/06/11 12:09:29;;;;;;;11.95;2.42;;;23.50;97.10;;;;;;5042593;28;20033;-79
2022/06/11 12:11:59;;;;;;;8.77;2.03;;;23.80;98.80;;;;;;5051462;28;20041;-77
2022/06/11 12:14:31;;;;;;;9.20;2.42;;;23.90;97.90;;;;;;5051655;28;20056;-77
2022/06/11 12:17:08;;;;;;;10.23;2.45;;;24.30;98.60;;;;;;5054482;28;20383;-79
2022/06/11 12:19:34;;;;;;;10.00;2.42;;;24.50;97.80;;;;;;5051975;28;20078;-81
2022/06/11 12:22:09;;;;;;;7.30;1.92;;;24.50;97.00;;;;;;5051068;28;20099;-79
2022/06/11 12:24:42;;;;;;;11.48;2.15;;;24.20;96.40;;;;;;5053341;28;20102;-77
2022/06/11 12:27:34;;;;;;;6.13;1.77;;;24.40;96.70;;;;;;5052247;28;20368;-77
2022/06/11 12:30:23;;;;;;;7.78;2.05;;;24.60;97.00;;;;;;5051518;28;20048;-77
2022/06/11 12:32:50;;;;;;;7.20;1.80;;;24.90;96.90;;;;;;5051464;28;20049;-78
2022/06/11 12:35:29;;;;;;;6.15;1.58;;;25.30;96.80;;;;;;5034056;28;20060;-77
2022/06/11 12:38:09;;;;;;;7.10;1.90;;;25.50;95.50;;;;;;5048355;28;20430;-78
2022/06/11 12:40:47;;;;;;;9.65;1.88;;;25.40;94.50;;;;;;5047730;28;20044;-76
2022/06/11 12:43:42;;;;;;;7.70;2.13;;;25.20;94.50;;;;;;5038623;28;20040;-79
2022/06/11 12:46:23;;;;;;;10.60;2.40;;;25.20;94.60;;;;;;5037737;28;20040;-79
2022/06/11 12:48:54;;;;;;;10.82;1.85;;;25.10;93.50;;;;;;5053994;28;20049;-79
2022/06/11 12:51:35;;;;;;;10.50;2.03;;;25.00;94.60;;;;;;5052900;28;20390;-78
2022/06/11 12:54:20;;;;;;;8.05;2.00;;;25.20;95.00;;;;;;5045287;28;20119;-79
2022/06/11 12:57:01;;;;;;;9.18;2.35;;;25.30;94.30;;;;;;5051949;28;20045;-78
2022/06/11 13:00:11;;;;;;;8.48;2.00;;;25.40;94.10;;;;;;5050208;28;20037;-77
2022/06/11 13:02:57;;;;;;;8.02;2.22;;;25.50;92.90;;;;;;5030192;28;20033;-77
2022/06/11 13:05:22;;;;;;;10.13;1.70;;;25.20;91.90;;;;;;5042308;28;20049;-76
2022/06/11 13:08:10;;;;;;;8.90;1.88;;;25.00;92.50;;;;;;5048675;28;20040;-77
2022/06/11 13:10:44;;;;;;;6.82;1.85;;;25.20;92.80;;;;;;5051070;28;20080;-78